sensor_id;sensor_type;location;lat;lon;timestamp;temperature;humidity
782;DHT22;374;52.568;13.402;2023-04-06T00:02:24;6.30;99.90
782;DHT22;374;52.568;13.402;2023-04-06T00:04:49;6.30;99.90
782;DHT22;374;52.568;13.402;2023-04-06T00:07:15;6.30;99.90
782;DHT22;374;52.568;13.402;2023-04-06T00:09:40;6.30;99.90
782;DHT22;374;52.568;13.402;2023-04-06T00:12:06;6.30;99.90
782;DHT22;374;52.568;13.402;2023-04-06T00:14:31;6.30;99.90
782;DHT22;374;52.568;13.402;2023-04-06T00:16:57;6.20;99.90
782;DHT22;374;52.568;13.402;2023-04-06T00:19:22;6.20;99.90
782;DHT22;374;52.568;13.402;2023-04-06T00:21:48;6.20;99.90
782;DHT22;374;52.568;13.402;2023-04-06T00:24:13;6.20;99.90
782;DHT22;374;52.568;13.402;2023-04-06T00:26:39;6.20;99.90
782;DHT22;374;52.568;13.402;2023-04-06T00:29:04;6.20;99.90
782;DHT22;374;52.568;13.402;2023-04-06T00:31:30;6.20;99.90
782;DHT22;374;52.568;13.402;2023-04-06T00:33:55;6.20;99.90
782;DHT22;374;52.568;13.402;2023-04-06T00:36:21;6.10;99.90
782;DHT22;374;52.568;13.402;2023-04-06T00:38:46;6.10;99.90
782;DHT22;374;52.568;13.402;2023-04-06T00:41:12;6.10;99.90
782;DHT22;374;52.568;13.402;2023-04-06T00:43:37;6.10;99.90
782;DHT22;374;52.568;13.402;2023-04-06T00:46:03;6.10;99.90
782;DHT22;374;52.568;13.402;2023-04-06T00:48:28;6.10;99.90
782;DHT22;374;52.568;13.402;2023-04-06T00:50:56;6.10;99.90
782;DHT22;374;52.568;13.402;2023-04-06T00:53:22;6.10;99.90
782;DHT22;374;52.568;13.402;2023-04-06T00:55:47;6.10;99.90
782;DHT22;374;52.568;13.402;2023-04-06T00:58:13;6.10;99.90
782;DHT22;374;52.568;13.402;2023-04-06T01:00:39;6.10;99.90
782;DHT22;374;52.568;13.402;2023-04-06T01:03:04;6.00;99.90
782;DHT22;374;52.568;13.402;2023-04-06T01:05:34;6.00;99.90
782;DHT22;374;52.568;13.402;2023-04-06T01:08:00;6.00;99.90
782;DHT22;374;52.568;13.402;2023-04-06T01:10:27;6.00;99.90
782;DHT22;374;52.568;13.402;2023-04-06T01:12:52;6.00;99.90
782;DHT22;374;52.568;13.402;2023-04-06T01:15:19;6.00;99.90
782;DHT22;374;52.568;13.402;2023-04-06T01:17:45;6.00;99.90
782;DHT22;374;52.568;13.402;2023-04-06T01:20:11;6.00;99.90
782;DHT22;374;52.568;13.402;2023-04-06T01:22:37;6.00;99.90
782;DHT22;374;52.568;13.402;2023-04-06T01:25:02;6.00;99.90
782;DHT22;374;52.568;13.402;2023-04-06T01:27:28;6.00;99.90
782;DHT22;374;52.568;13.402;2023-04-06T01:29:56;5.90;99.90
782;DHT22;374;52.568;13.402;2023-04-06T01:32:22;5.90;99.90
782;DHT22;374;52.568;13.402;2023-04-06T01:34:47;5.90;99.90
782;DHT22;374;52.568;13.402;2023-04-06T01:37:13;5.90;99.90
782;DHT22;374;52.568;13.402;2023-04-06T01:39:38;5.90;99.90
782;DHT22;374;52.568;13.402;2023-04-06T01:42:04;5.90;99.90
782;DHT22;374;52.568;13.402;2023-04-06T01:44:29;5.90;99.90
782;DHT22;374;52.568;13.402;2023-04-06T01:46:57;5.90;99.90
782;DHT22;374;52.568;13.402;2023-04-06T01:49:23;5.80;99.90
782;DHT22;374;52.568;13.402;2023-04-06T01:51:48;5.80;99.90
782;DHT22;374;52.568;13.402;2023-04-06T01:54:14;5.80;99.90
782;DHT22;374;52.568;13.402;2023-04-06T01:56:39;5.80;99.90
782;DHT22;374;52.568;13.402;2023-04-06T01:59:05;5.80;99.90
782;DHT22;374;52.568;13.402;2023-04-06T02:01:31;5.80;99.90
782;DHT22;374;52.568;13.402;2023-04-06T02:03:56;5.80;99.90
782;DHT22;374;52.568;13.402;2023-04-06T02:06:22;5.80;99.90
782;DHT22;374;52.568;13.402;2023-04-06T02:08:47;5.80;99.90
782;DHT22;374;52.568;13.402;2023-04-06T02:11:13;5.80;99.90
782;DHT22;374;52.568;13.402;2023-04-06T02:13:38;5.80;99.90
782;DHT22;374;52.568;13.402;2023-04-06T02:16:04;5.80;99.90
782;DHT22;374;52.568;13.402;2023-04-06T02:18:30;5.70;99.90
782;DHT22;374;52.568;13.402;2023-04-06T02:20:56;5.70;99.90
782;DHT22;374;52.568;13.402;2023-04-06T02:23:21;5.70;99.90
782;DHT22;374;52.568;13.402;2023-04-06T02:25:47;5.70;99.90
782;DHT22;374;52.568;13.402;2023-04-06T02:28:12;5.70;99.90
782;DHT22;374;52.568;13.402;2023-04-06T02:30:38;5.70;99.90
782;DHT22;374;52.568;13.402;2023-04-06T02:33:04;5.70;99.90
782;DHT22;374;52.568;13.402;2023-04-06T02:35:30;5.70;99.90
782;DHT22;374;52.568;13.402;2023-04-06T02:37:56;5.70;99.90
782;DHT22;374;52.568;13.402;2023-04-06T02:40:21;5.60;99.90
782;DHT22;374;52.568;13.402;2023-04-06T02:42:47;5.60;99.90
782;DHT22;374;52.568;13.402;2023-04-06T02:45:12;5.60;99.90
782;DHT22;374;52.568;13.402;2023-04-06T02:47:38;5.60;99.90
782;DHT22;374;52.568;13.402;2023-04-06T02:50:04;5.60;99.90
782;DHT22;374;52.568;13.402;2023-04-06T02:52:30;5.60;99.90
782;DHT22;374;52.568;13.402;2023-04-06T02:54:55;5.50;99.90
782;DHT22;374;52.568;13.402;2023-04-06T02:57:21;5.50;99.90
782;DHT22;374;52.568;13.402;2023-04-06T02:59:46;5.50;99.90
782;DHT22;374;52.568;13.402;2023-04-06T03:02:12;5.50;99.90
782;DHT22;374;52.568;13.402;2023-04-06T03:04:37;5.50;99.90
782;DHT22;374;52.568;13.402;2023-04-06T03:07:03;5.50;99.90
782;DHT22;374;52.568;13.402;2023-04-06T03:09:30;5.40;99.90
782;DHT22;374;52.568;13.402;2023-04-06T03:11:56;5.40;99.90
782;DHT22;374;52.568;13.402;2023-04-06T03:14:21;5.40;99.90
782;DHT22;374;52.568;13.402;2023-04-06T03:16:48;5.40;99.90
782;DHT22;374;52.568;13.402;2023-04-06T03:19:17;5.40;99.90
782;DHT22;374;52.568;13.402;2023-04-06T03:21:42;5.40;99.90
782;DHT22;374;52.568;13.402;2023-04-06T03:24:08;5.30;99.90
782;DHT22;374;52.568;13.402;2023-04-06T03:26:33;5.30;99.90
782;DHT22;374;52.568;13.402;2023-04-06T03:28:59;5.30;99.90
782;DHT22;374;52.568;13.402;2023-04-06T03:31:26;5.30;99.90
782;DHT22;374;52.568;13.402;2023-04-06T03:33:52;5.30;99.90
782;DHT22;374;52.568;13.402;2023-04-06T03:36:17;5.20;99.90
782;DHT22;374;52.568;13.402;2023-04-06T03:38:43;5.30;99.90
782;DHT22;374;52.568;13.402;2023-04-06T03:41:08;5.20;99.90
782;DHT22;374;52.568;13.402;2023-04-06T03:43:34;5.20;99.90
782;DHT22;374;52.568;13.402;2023-04-06T03:45:59;5.20;99.90
782;DHT22;374;52.568;13.402;2023-04-06T03:48:25;5.20;99.90
782;DHT22;374;52.568;13.402;2023-04-06T03:50:50;5.20;99.90
782;DHT22;374;52.568;13.402;2023-04-06T03:53:16;5.20;99.90
782;DHT22;374;52.568;13.402;2023-04-06T03:55:41;5.10;99.90
782;DHT22;374;52.568;13.402;2023-04-06T03:58:07;5.10;99.90
782;DHT22;374;52.568;13.402;2023-04-06T04:00:32;5.10;99.90
782;DHT22;374;52.568;13.402;2023-04-06T04:02:58;5.10;99.90
782;DHT22;374;52.568;13.402;2023-04-06T04:05:24;5.00;99.90
782;DHT22;374;52.568;13.402;2023-04-06T04:07:51;5.00;99.90
782;DHT22;374;52.568;13.402;2023-04-06T04:10:17;5.00;99.90
782;DHT22;374;52.568;13.402;2023-04-06T04:12:42;5.00;99.90
782;DHT22;374;52.568;13.402;2023-04-06T04:15:08;5.00;99.90
782;DHT22;374;52.568;13.402;2023-04-06T04:17:33;5.00;99.90
782;DHT22;374;52.568;13.402;2023-04-06T04:19:59;4.90;99.90
782;DHT22;374;52.568;13.402;2023-04-06T04:22:24;4.90;99.90
782;DHT22;374;52.568;13.402;2023-04-06T04:24:50;4.90;99.90
782;DHT22;374;52.568;13.402;2023-04-06T04:27:15;4.80;99.90
782;DHT22;374;52.568;13.402;2023-04-06T04:29:41;4.80;99.90
782;DHT22;374;52.568;13.402;2023-04-06T04:32:08;4.80;99.90
782;DHT22;374;52.568;13.402;2023-04-06T04:34:34;4.80;99.90
782;DHT22;374;52.568;13.402;2023-04-06T04:37:00;4.80;99.90
782;DHT22;374;52.568;13.402;2023-04-06T04:39:25;4.80;99.90
782;DHT22;374;52.568;13.402;2023-04-06T04:41:51;4.80;99.90
782;DHT22;374;52.568;13.402;2023-04-06T04:44:16;4.80;99.90
782;DHT22;374;52.568;13.402;2023-04-06T04:46:42;4.70;99.90
782;DHT22;374;52.568;13.402;2023-04-06T04:49:07;4.70;99.90
782;DHT22;374;52.568;13.402;2023-04-06T04:51:33;4.70;99.90
782;DHT22;374;52.568;13.402;2023-04-06T04:53:59;4.70;99.90
782;DHT22;374;52.568;13.402;2023-04-06T04:56:24;4.70;99.90
782;DHT22;374;52.568;13.402;2023-04-06T04:58:50;4.70;99.90
782;DHT22;374;52.568;13.402;2023-04-06T05:01:16;4.70;99.90
782;DHT22;374;52.568;13.402;2023-04-06T05:03:41;4.70;99.90
782;DHT22;374;52.568;13.402;2023-04-06T05:06:07;4.60;99.90
782;DHT22;374;52.568;13.402;2023-04-06T05:08:33;4.70;99.90
782;DHT22;374;52.568;13.402;2023-04-06T05:10:58;4.70;99.90
782;DHT22;374;52.568;13.402;2023-04-06T05:13:24;4.60;99.90
782;DHT22;374;52.568;13.402;2023-04-06T05:15:50;4.60;99.90
782;DHT22;374;52.568;13.402;2023-04-06T05:18:15;4.70;99.90
782;DHT22;374;52.568;13.402;2023-04-06T05:20:42;4.60;99.90
782;DHT22;374;52.568;13.402;2023-04-06T05:23:08;4.60;99.90
782;DHT22;374;52.568;13.402;2023-04-06T05:25:33;4.60;99.90
782;DHT22;374;52.568;13.402;2023-04-06T05:27:59;4.60;99.90
782;DHT22;374;52.568;13.402;2023-04-06T05:30:25;4.60;99.90
782;DHT22;374;52.568;13.402;2023-04-06T05:32:51;4.50;99.90
782;DHT22;374;52.568;13.402;2023-04-06T05:35:16;4.50;99.90
782;DHT22;374;52.568;13.402;2023-04-06T05:37:43;4.60;99.90
782;DHT22;374;52.568;13.402;2023-04-06T05:40:08;4.60;99.90
782;DHT22;374;52.568;13.402;2023-04-06T05:42:43;4.60;99.90
782;DHT22;374;52.568;13.402;2023-04-06T05:45:10;4.60;99.90
782;DHT22;374;52.568;13.402;2023-04-06T05:47:36;4.60;99.90
782;DHT22;374;52.568;13.402;2023-04-06T05:50:03;4.60;99.90
782;DHT22;374;52.568;13.402;2023-04-06T05:52:28;4.60;99.90
782;DHT22;374;52.568;13.402;2023-04-06T05:54:54;4.70;99.90
782;DHT22;374;52.568;13.402;2023-04-06T05:57:19;4.60;99.90
782;DHT22;374;52.568;13.402;2023-04-06T05:59:45;4.70;99.90
782;DHT22;374;52.568;13.402;2023-04-06T06:02:10;4.70;99.90
782;DHT22;374;52.568;13.402;2023-04-06T06:04:36;4.70;99.90
782;DHT22;374;52.568;13.402;2023-04-06T06:07:02;4.70;99.90
782;DHT22;374;52.568;13.402;2023-04-06T06:09:27;4.70;99.90
782;DHT22;374;52.568;13.402;2023-04-06T06:11:53;4.70;99.90
782;DHT22;374;52.568;13.402;2023-04-06T06:14:18;4.80;99.90
782;DHT22;374;52.568;13.402;2023-04-06T06:16:44;4.80;99.90
782;DHT22;374;52.568;13.402;2023-04-06T06:19:09;4.80;99.90
782;DHT22;374;52.568;13.402;2023-04-06T06:21:35;4.80;99.90
782;DHT22;374;52.568;13.402;2023-04-06T06:24:01;4.80;99.90
782;DHT22;374;52.568;13.402;2023-04-06T06:26:27;4.80;99.90
782;DHT22;374;52.568;13.402;2023-04-06T06:28:52;4.80;99.90
782;DHT22;374;52.568;13.402;2023-04-06T06:31:18;4.90;99.90
782;DHT22;374;52.568;13.402;2023-04-06T06:33:48;4.90;99.90
782;DHT22;374;52.568;13.402;2023-04-06T06:36:16;4.90;99.90
782;DHT22;374;52.568;13.402;2023-04-06T06:38:41;5.00;99.90
782;DHT22;374;52.568;13.402;2023-04-06T06:41:07;5.00;99.90
782;DHT22;374;52.568;13.402;2023-04-06T06:43:32;5.10;99.90
782;DHT22;374;52.568;13.402;2023-04-06T06:45:58;5.10;99.90
782;DHT22;374;52.568;13.402;2023-04-06T06:48:23;5.20;99.90
782;DHT22;374;52.568;13.402;2023-04-06T06:50:49;5.30;99.90
782;DHT22;374;52.568;13.402;2023-04-06T06:53:15;5.40;99.90
782;DHT22;374;52.568;13.402;2023-04-06T06:55:40;5.60;99.90
782;DHT22;374;52.568;13.402;2023-04-06T06:58:06;5.80;99.90
782;DHT22;374;52.568;13.402;2023-04-06T07:00:32;5.90;99.90
782;DHT22;374;52.568;13.402;2023-04-06T07:02:57;6.00;99.90
782;DHT22;374;52.568;13.402;2023-04-06T07:05:23;6.10;99.90
782;DHT22;374;52.568;13.402;2023-04-06T07:07:48;6.30;99.90
782;DHT22;374;52.568;13.402;2023-04-06T07:10:14;6.40;99.90
782;DHT22;374;52.568;13.402;2023-04-06T07:12:39;6.50;99.90
782;DHT22;374;52.568;13.402;2023-04-06T07:15:05;6.60;99.90
782;DHT22;374;52.568;13.402;2023-04-06T07:17:31;6.80;99.90
782;DHT22;374;52.568;13.402;2023-04-06T07:19:56;6.80;99.90
782;DHT22;374;52.568;13.402;2023-04-06T07:22:22;6.90;99.90
782;DHT22;374;52.568;13.402;2023-04-06T07:24:47;7.00;99.70
782;DHT22;374;52.568;13.402;2023-04-06T07:27:13;7.10;99.90
782;DHT22;374;52.568;13.402;2023-04-06T07:29:38;7.10;99.60
782;DHT22;374;52.568;13.402;2023-04-06T07:32:04;7.20;99.60
782;DHT22;374;52.568;13.402;2023-04-06T07:34:29;7.20;99.00
782;DHT22;374;52.568;13.402;2023-04-06T07:36:55;7.40;99.20
782;DHT22;374;52.568;13.402;2023-04-06T07:39:21;7.50;99.10
782;DHT22;374;52.568;13.402;2023-04-06T07:41:47;7.50;98.90
782;DHT22;374;52.568;13.402;2023-04-06T07:44:12;7.60;98.60
782;DHT22;374;52.568;13.402;2023-04-06T07:46:38;7.80;97.50
782;DHT22;374;52.568;13.402;2023-04-06T07:49:03;7.90;97.80
782;DHT22;374;52.568;13.402;2023-04-06T07:51:29;8.00;97.70
782;DHT22;374;52.568;13.402;2023-04-06T07:53:55;8.10;96.60
782;DHT22;374;52.568;13.402;2023-04-06T07:56:21;8.20;95.90
782;DHT22;374;52.568;13.402;2023-04-06T07:58:46;8.40;96.20
782;DHT22;374;52.568;13.402;2023-04-06T08:01:12;8.40;94.90
782;DHT22;374;52.568;13.402;2023-04-06T08:03:38;8.60;94.20
782;DHT22;374;52.568;13.402;2023-04-06T08:06:04;8.70;94.30
782;DHT22;374;52.568;13.402;2023-04-06T08:08:31;8.70;94.10
782;DHT22;374;52.568;13.402;2023-04-06T08:10:56;9.00;94.40
782;DHT22;374;52.568;13.402;2023-04-06T08:13:22;9.20;94.10
782;DHT22;374;52.568;13.402;2023-04-06T08:15:47;9.30;93.50
782;DHT22;374;52.568;13.402;2023-04-06T08:18:13;9.50;92.80
782;DHT22;374;52.568;13.402;2023-04-06T08:20:39;9.80;92.90
782;DHT22;374;52.568;13.402;2023-04-06T08:23:05;10.00;91.00
782;DHT22;374;52.568;13.402;2023-04-06T08:25:33;10.00;91.50
782;DHT22;374;52.568;13.402;2023-04-06T08:27:58;10.10;89.80
782;DHT22;374;52.568;13.402;2023-04-06T08:30:24;10.30;88.80
782;DHT22;374;52.568;13.402;2023-04-06T08:32:49;10.00;89.20
782;DHT22;374;52.568;13.402;2023-04-06T08:35:15;10.10;86.80
782;DHT22;374;52.568;13.402;2023-04-06T08:37:41;10.40;88.30
782;DHT22;374;52.568;13.402;2023-04-06T08:40:06;10.50;85.60
782;DHT22;374;52.568;13.402;2023-04-06T08:42:33;10.70;84.40
782;DHT22;374;52.568;13.402;2023-04-06T08:45:03;10.90;86.20
782;DHT22;374;52.568;13.402;2023-04-06T08:47:29;11.10;85.90
782;DHT22;374;52.568;13.402;2023-04-06T08:49:55;11.00;83.20
782;DHT22;374;52.568;13.402;2023-04-06T08:52:21;11.10;81.70
782;DHT22;374;52.568;13.402;2023-04-06T08:54:47;11.30;82.20
782;DHT22;374;52.568;13.402;2023-04-06T08:57:13;11.40;80.80
782;DHT22;374;52.568;13.402;2023-04-06T08:59:39;11.50;80.00
782;DHT22;374;52.568;13.402;2023-04-06T09:02:06;11.70;79.10
782;DHT22;374;52.568;13.402;2023-04-06T09:04:35;11.90;78.60
782;DHT22;374;52.568;13.402;2023-04-06T09:07:01;11.90;73.90
782;DHT22;374;52.568;13.402;2023-04-06T09:09:26;12.10;76.00
782;DHT22;374;52.568;13.402;2023-04-06T09:11:52;12.30;75.30
782;DHT22;374;52.568;13.402;2023-04-06T09:14:36;12.40;74.40
782;DHT22;374;52.568;13.402;2023-04-06T09:17:03;12.60;74.00
782;DHT22;374;52.568;13.402;2023-04-06T09:19:28;12.70;72.80
782;DHT22;374;52.568;13.402;2023-04-06T09:22:04;12.90;71.70
782;DHT22;374;52.568;13.402;2023-04-06T09:24:46;13.00;70.80
782;DHT22;374;52.568;13.402;2023-04-06T09:27:13;13.30;71.30
782;DHT22;374;52.568;13.402;2023-04-06T09:29:40;13.50;70.90
782;DHT22;374;52.568;13.402;2023-04-06T09:32:07;13.80;68.20
782;DHT22;374;52.568;13.402;2023-04-06T09:34:33;14.00;68.50
782;DHT22;374;52.568;13.402;2023-04-06T09:36:59;14.10;68.40
782;DHT22;374;52.568;13.402;2023-04-06T09:39:25;14.10;67.40
782;DHT22;374;52.568;13.402;2023-04-06T09:41:52;14.40;65.00
782;DHT22;374;52.568;13.402;2023-04-06T09:44:18;14.50;63.10
782;DHT22;374;52.568;13.402;2023-04-06T09:46:45;14.60;63.00
782;DHT22;374;52.568;13.402;2023-04-06T09:49:11;14.50;66.70
782;DHT22;374;52.568;13.402;2023-04-06T09:51:46;14.80;63.70
782;DHT22;374;52.568;13.402;2023-04-06T09:54:20;15.00;62.80
782;DHT22;374;52.568;13.402;2023-04-06T09:56:51;15.00;64.40
782;DHT22;374;52.568;13.402;2023-04-06T09:59:36;14.60;63.00
782;DHT22;374;52.568;13.402;2023-04-06T10:02:05;14.10;63.30
782;DHT22;374;52.568;13.402;2023-04-06T10:04:34;13.60;63.00
782;DHT22;374;52.568;13.402;2023-04-06T10:07:02;13.40;63.40
782;DHT22;374;52.568;13.402;2023-04-06T10:09:28;13.20;65.30
782;DHT22;374;52.568;13.402;2023-04-06T10:12:05;12.90;67.10
782;DHT22;374;52.568;13.402;2023-04-06T10:14:34;12.50;64.00
782;DHT22;374;52.568;13.402;2023-04-06T10:17:05;12.30;60.20
782;DHT22;374;52.568;13.402;2023-04-06T10:22:55;12.20;63.40
782;DHT22;374;52.568;13.402;2023-04-06T10:25:30;12.10;62.10
782;DHT22;374;52.568;13.402;2023-04-06T10:28:00;12.00;63.00
782;DHT22;374;52.568;13.402;2023-04-06T10:30:26;11.60;59.20
782;DHT22;374;52.568;13.402;2023-04-06T10:32:53;11.40;60.60
782;DHT22;374;52.568;13.402;2023-04-06T10:35:18;11.40;62.80
782;DHT22;374;52.568;13.402;2023-04-06T10:37:51;11.40;67.40
782;DHT22;374;52.568;13.402;2023-04-06T10:40:25;11.30;63.70
782;DHT22;374;52.568;13.402;2023-04-06T10:42:52;11.30;64.30
782;DHT22;374;52.568;13.402;2023-04-06T10:45:26;11.20;59.90
782;DHT22;374;52.568;13.402;2023-04-06T10:47:52;11.20;65.30
782;DHT22;374;52.568;13.402;2023-04-06T10:50:18;11.10;68.10
782;DHT22;374;52.568;13.402;2023-04-06T10:52:46;11.10;63.20
782;DHT22;374;52.568;13.402;2023-04-06T10:55:13;11.00;64.60
782;DHT22;374;52.568;13.402;2023-04-06T10:57:39;10.90;65.20
782;DHT22;374;52.568;13.402;2023-04-06T11:00:06;11.00;61.60
782;DHT22;374;52.568;13.402;2023-04-06T11:02:32;11.00;64.40
782;DHT22;374;52.568;13.402;2023-04-06T11:04:58;11.00;62.90
782;DHT22;374;52.568;13.402;2023-04-06T11:07:27;11.00;63.00
782;DHT22;374;52.568;13.402;2023-04-06T11:10:02;11.00;65.30
782;DHT22;374;52.568;13.402;2023-04-06T11:12:28;10.90;59.20
782;DHT22;374;52.568;13.402;2023-04-06T11:14:58;10.80;59.00
782;DHT22;374;52.568;13.402;2023-04-06T11:17:35;10.70;66.50
782;DHT22;374;52.568;13.402;2023-04-06T11:20:02;10.90;64.10
782;DHT22;374;52.568;13.402;2023-04-06T11:22:28;10.80;61.30
782;DHT22;374;52.568;13.402;2023-04-06T11:25:05;10.80;60.40
782;DHT22;374;52.568;13.402;2023-04-06T11:27:32;10.70;57.60
782;DHT22;374;52.568;13.402;2023-04-06T11:30:09;10.70;58.90
782;DHT22;374;52.568;13.402;2023-04-06T11:32:43;10.60;58.40
782;DHT22;374;52.568;13.402;2023-04-06T11:35:22;10.50;62.10
782;DHT22;374;52.568;13.402;2023-04-06T11:37:51;10.50;59.70
782;DHT22;374;52.568;13.402;2023-04-06T11:40:25;10.50;61.10
782;DHT22;374;52.568;13.402;2023-04-06T11:42:54;10.50;60.60
782;DHT22;374;52.568;13.402;2023-04-06T11:45:20;10.50;62.20
782;DHT22;374;52.568;13.402;2023-04-06T11:47:55;10.40;66.30
782;DHT22;374;52.568;13.402;2023-04-06T11:50:22;10.40;61.30
782;DHT22;374;52.568;13.402;2023-04-06T11:52:58;10.40;63.40
782;DHT22;374;52.568;13.402;2023-04-06T11:55:24;10.40;61.60
782;DHT22;374;52.568;13.402;2023-04-06T11:57:55;10.50;57.70
782;DHT22;374;52.568;13.402;2023-04-06T12:00:21;10.50;59.50
782;DHT22;374;52.568;13.402;2023-04-06T12:02:48;10.50;59.90
782;DHT22;374;52.568;13.402;2023-04-06T12:05:14;10.60;62.20
782;DHT22;374;52.568;13.402;2023-04-06T12:07:39;10.50;63.80
782;DHT22;374;52.568;13.402;2023-04-06T12:10:05;10.50;63.90
782;DHT22;374;52.568;13.402;2023-04-06T12:12:31;10.60;60.90
782;DHT22;374;52.568;13.402;2023-04-06T12:14:57;10.60;64.00
782;DHT22;374;52.568;13.402;2023-04-06T12:17:23;10.70;62.10
782;DHT22;374;52.568;13.402;2023-04-06T12:19:48;10.70;65.20
782;DHT22;374;52.568;13.402;2023-04-06T12:22:14;10.80;63.20
782;DHT22;374;52.568;13.402;2023-04-06T12:24:39;10.80;61.80
782;DHT22;374;52.568;13.402;2023-04-06T12:27:05;10.80;64.40
782;DHT22;374;52.568;13.402;2023-04-06T12:29:30;10.90;59.50
782;DHT22;374;52.568;13.402;2023-04-06T12:31:56;10.90;62.80
782;DHT22;374;52.568;13.402;2023-04-06T12:34:21;10.80;62.30
782;DHT22;374;52.568;13.402;2023-04-06T12:36:47;10.80;62.00
782;DHT22;374;52.568;13.402;2023-04-06T12:39:12;10.70;62.80
782;DHT22;374;52.568;13.402;2023-04-06T12:41:38;10.70;59.70
782;DHT22;374;52.568;13.402;2023-04-06T12:44:06;10.80;61.70
782;DHT22;374;52.568;13.402;2023-04-06T12:46:31;10.80;63.30
782;DHT22;374;52.568;13.402;2023-04-06T12:48:58;10.70;59.30
782;DHT22;374;52.568;13.402;2023-04-06T12:51:27;10.60;62.30
782;DHT22;374;52.568;13.402;2023-04-06T12:53:53;10.70;64.60
782;DHT22;374;52.568;13.402;2023-04-06T12:56:18;10.60;59.80
782;DHT22;374;52.568;13.402;2023-04-06T12:58:44;10.70;62.10
782;DHT22;374;52.568;13.402;2023-04-06T13:01:11;10.60;63.20
782;DHT22;374;52.568;13.402;2023-04-06T13:03:40;10.60;60.90
782;DHT22;374;52.568;13.402;2023-04-06T13:06:06;10.60;59.40
782;DHT22;374;52.568;13.402;2023-04-06T13:08:33;10.60;60.10
782;DHT22;374;52.568;13.402;2023-04-06T13:11:01;10.70;62.10
782;DHT22;374;52.568;13.402;2023-04-06T13:13:28;10.70;61.90
782;DHT22;374;52.568;13.402;2023-04-06T13:16:00;10.60;62.30
782;DHT22;374;52.568;13.402;2023-04-06T13:18:26;10.60;60.10
782;DHT22;374;52.568;13.402;2023-04-06T13:20:52;10.60;60.80
782;DHT22;374;52.568;13.402;2023-04-06T13:23:24;10.70;59.70
782;DHT22;374;52.568;13.402;2023-04-06T13:26:06;10.60;61.60
782;DHT22;374;52.568;13.402;2023-04-06T13:28:34;10.50;59.40
782;DHT22;374;52.568;13.402;2023-04-06T13:31:01;10.40;60.10
782;DHT22;374;52.568;13.402;2023-04-06T13:33:27;10.40;61.60
782;DHT22;374;52.568;13.402;2023-04-06T13:35:52;10.40;66.80
782;DHT22;374;52.568;13.402;2023-04-06T13:38:18;10.50;64.60
782;DHT22;374;52.568;13.402;2023-04-06T13:40:44;10.40;65.00
782;DHT22;374;52.568;13.402;2023-04-06T13:43:10;10.40;66.60
782;DHT22;374;52.568;13.402;2023-04-06T13:45:36;10.40;66.80
782;DHT22;374;52.568;13.402;2023-04-06T13:48:01;10.30;62.80
782;DHT22;374;52.568;13.402;2023-04-06T13:50:27;10.30;65.40
782;DHT22;374;52.568;13.402;2023-04-06T13:52:53;10.40;64.30
782;DHT22;374;52.568;13.402;2023-04-06T13:55:19;10.40;63.20
782;DHT22;374;52.568;13.402;2023-04-06T13:57:44;10.40;65.20
782;DHT22;374;52.568;13.402;2023-04-06T14:00:10;10.40;62.70
782;DHT22;374;52.568;13.402;2023-04-06T14:02:38;10.40;62.80
782;DHT22;374;52.568;13.402;2023-04-06T14:05:04;10.30;65.90
782;DHT22;374;52.568;13.402;2023-04-06T14:07:30;10.30;64.60
782;DHT22;374;52.568;13.402;2023-04-06T14:09:56;10.40;63.40
782;DHT22;374;52.568;13.402;2023-04-06T14:12:24;10.30;63.30
782;DHT22;374;52.568;13.402;2023-04-06T14:14:50;10.30;65.10
782;DHT22;374;52.568;13.402;2023-04-06T14:17:16;10.30;63.70
782;DHT22;374;52.568;13.402;2023-04-06T14:19:41;10.30;59.60
782;DHT22;374;52.568;13.402;2023-04-06T14:22:08;10.30;62.70
782;DHT22;374;52.568;13.402;2023-04-06T14:24:34;10.30;62.30
782;DHT22;374;52.568;13.402;2023-04-06T14:27:01;10.40;60.10
782;DHT22;374;52.568;13.402;2023-04-06T14:29:28;10.40;65.10
782;DHT22;374;52.568;13.402;2023-04-06T14:31:53;10.40;64.70
782;DHT22;374;52.568;13.402;2023-04-06T14:34:25;10.40;69.20
782;DHT22;374;52.568;13.402;2023-04-06T14:36:51;10.30;64.30
782;DHT22;374;52.568;13.402;2023-04-06T14:39:20;10.30;63.20
782;DHT22;374;52.568;13.402;2023-04-06T14:41:46;11.20;64.90
782;DHT22;374;52.568;13.402;2023-04-06T14:44:13;10.40;64.90
782;DHT22;374;52.568;13.402;2023-04-06T14:46:38;10.40;65.50
782;DHT22;374;52.568;13.402;2023-04-06T14:49:04;10.40;63.00
782;DHT22;374;52.568;13.402;2023-04-06T14:51:30;10.40;65.10
782;DHT22;374;52.568;13.402;2023-04-06T14:53:56;10.30;63.70
782;DHT22;374;52.568;13.402;2023-04-06T14:56:22;10.40;63.90
782;DHT22;374;52.568;13.402;2023-04-06T14:58:49;10.30;61.90
782;DHT22;374;52.568;13.402;2023-04-06T15:01:19;10.30;64.10
782;DHT22;374;52.568;13.402;2023-04-06T15:03:45;10.30;65.40
782;DHT22;374;52.568;13.402;2023-04-06T15:06:15;10.30;63.80
782;DHT22;374;52.568;13.402;2023-04-06T15:08:42;10.30;65.00
782;DHT22;374;52.568;13.402;2023-04-06T15:11:08;10.30;67.30
782;DHT22;374;52.568;13.402;2023-04-06T15:13:33;10.30;67.00
782;DHT22;374;52.568;13.402;2023-04-06T15:15:59;10.40;66.80
782;DHT22;374;52.568;13.402;2023-04-06T15:18:25;10.40;69.60
782;DHT22;374;52.568;13.402;2023-04-06T15:20:51;10.30;66.50
782;DHT22;374;52.568;13.402;2023-04-06T15:23:17;10.40;62.80
782;DHT22;374;52.568;13.402;2023-04-06T15:25:43;10.40;64.30
782;DHT22;374;52.568;13.402;2023-04-06T15:28:09;10.40;65.90
782;DHT22;374;52.568;13.402;2023-04-06T15:30:35;10.40;66.70
782;DHT22;374;52.568;13.402;2023-04-06T15:33:01;10.40;64.70
782;DHT22;374;52.568;13.402;2023-04-06T15:35:29;10.40;65.70
782;DHT22;374;52.568;13.402;2023-04-06T15:37:55;10.30;63.80
782;DHT22;374;52.568;13.402;2023-04-06T15:40:21;10.30;67.30
782;DHT22;374;52.568;13.402;2023-04-06T15:42:47;10.40;65.70
782;DHT22;374;52.568;13.402;2023-04-06T15:45:13;10.40;68.20
782;DHT22;374;52.568;13.402;2023-04-06T15:47:41;10.40;66.30
782;DHT22;374;52.568;13.402;2023-04-06T15:50:07;10.40;64.40
782;DHT22;374;52.568;13.402;2023-04-06T15:52:34;10.40;65.60
782;DHT22;374;52.568;13.402;2023-04-06T15:55:02;10.40;65.20
782;DHT22;374;52.568;13.402;2023-04-06T15:57:27;10.40;70.60
782;DHT22;374;52.568;13.402;2023-04-06T15:59:53;10.40;66.60
782;DHT22;374;52.568;13.402;2023-04-06T16:02:21;10.40;66.60
782;DHT22;374;52.568;13.402;2023-04-06T16:04:57;10.40;66.30
782;DHT22;374;52.568;13.402;2023-04-06T16:07:23;10.40;65.80
782;DHT22;374;52.568;13.402;2023-04-06T16:09:50;10.40;63.60
782;DHT22;374;52.568;13.402;2023-04-06T16:12:16;10.40;67.80
782;DHT22;374;52.568;13.402;2023-04-06T16:14:42;10.30;64.70
782;DHT22;374;52.568;13.402;2023-04-06T16:17:07;10.20;66.70
782;DHT22;374;52.568;13.402;2023-04-06T16:19:33;10.30;62.30
782;DHT22;374;52.568;13.402;2023-04-06T16:21:58;10.30;66.50
782;DHT22;374;52.568;13.402;2023-04-06T16:24:24;10.40;60.70
782;DHT22;374;52.568;13.402;2023-04-06T16:26:50;10.30;64.30